sensor_id;sensor_type;location;lat;lon;timestamp;temperature;humidity
4356;DHT22;64374;51.482;7.408;2023-04-06T00:00:24;10.70;71.20
4356;DHT22;64374;51.482;7.408;2023-04-06T00:02:52;10.60;71.90
4356;DHT22;64374;51.482;7.408;2023-04-06T00:05:21;10.50;72.30
4356;DHT22;64374;51.482;7.408;2023-04-06T00:07:54;10.30;72.70
4356;DHT22;64374;51.482;7.408;2023-04-06T00:10:24;10.20;73.10
4356;DHT22;64374;51.482;7.408;2023-04-06T00:12:55;10.20;73.50
4356;DHT22;64374;51.482;7.408;2023-04-06T00:15:25;10.20;73.90
4356;DHT22;64374;51.482;7.408;2023-04-06T00:17:55;10.30;74.50
4356;DHT22;64374;51.482;7.408;2023-04-06T00:20:24;10.20;73.40
4356;DHT22;64374;51.482;7.408;2023-04-06T00:22:54;10.20;74.20
4356;DHT22;64374;51.482;7.408;2023-04-06T00:25:22;10.30;74.90
4356;DHT22;64374;51.482;7.408;2023-04-06T00:27:50;10.60;75.00
4356;DHT22;64374;51.482;7.408;2023-04-06T00:30:19;10.80;74.30
4356;DHT22;64374;51.482;7.408;2023-04-06T00:32:49;10.70;74.00
4356;DHT22;64374;51.482;7.408;2023-04-06T00:35:19;10.60;74.00
4356;DHT22;64374;51.482;7.408;2023-04-06T00:37:47;10.50;74.10
4356;DHT22;64374;51.482;7.408;2023-04-06T00:40:17;10.50;74.20
4356;DHT22;64374;51.482;7.408;2023-04-06T00:42:46;10.40;74.50
4356;DHT22;64374;51.482;7.408;2023-04-06T00:45:15;10.50;75.00
4356;DHT22;64374;51.482;7.408;2023-04-06T00:47:43;10.50;74.70
4356;DHT22;64374;51.482;7.408;2023-04-06T00:50:12;10.40;74.80
4356;DHT22;64374;51.482;7.408;2023-04-06T00:52:40;10.20;74.70
4356;DHT22;64374;51.482;7.408;2023-04-06T00:55:09;10.30;75.00
4356;DHT22;64374;51.482;7.408;2023-04-06T00:57:43;10.40;74.90
4356;DHT22;64374;51.482;7.408;2023-04-06T01:00:13;10.50;74.80
4356;DHT22;64374;51.482;7.408;2023-04-06T01:02:44;10.60;74.60
4356;DHT22;64374;51.482;7.408;2023-04-06T01:05:19;10.60;74.90
4356;DHT22;64374;51.482;7.408;2023-04-06T01:07:54;10.40;73.60
4356;DHT22;64374;51.482;7.408;2023-04-06T01:10:29;10.50;74.00
4356;DHT22;64374;51.482;7.408;2023-04-06T01:13:16;10.30;73.70
4356;DHT22;64374;51.482;7.408;2023-04-06T01:15:50;10.30;73.90
4356;DHT22;64374;51.482;7.408;2023-04-06T01:18:28;10.20;73.40
4356;DHT22;64374;51.482;7.408;2023-04-06T01:21:29;10.20;73.90
4356;DHT22;64374;51.482;7.408;2023-04-06T01:24:12;10.30;73.50
4356;DHT22;64374;51.482;7.408;2023-04-06T01:27:16;10.30;73.60
4356;DHT22;64374;51.482;7.408;2023-04-06T01:29:47;10.40;73.70
4356;DHT22;64374;51.482;7.408;2023-04-06T01:32:41;10.40;73.60
4356;DHT22;64374;51.482;7.408;2023-04-06T01:35:13;10.50;73.50
4356;DHT22;64374;51.482;7.408;2023-04-06T01:37:51;10.40;72.90
4356;DHT22;64374;51.482;7.408;2023-04-06T01:40:28;10.50;73.20
4356;DHT22;64374;51.482;7.408;2023-04-06T01:42:57;10.50;73.20
4356;DHT22;64374;51.482;7.408;2023-04-06T01:45:32;10.40;72.70
4356;DHT22;64374;51.482;7.408;2023-04-06T01:48:11;10.50;73.50
4356;DHT22;64374;51.482;7.408;2023-04-06T01:50:39;10.40;72.90
4356;DHT22;64374;51.482;7.408;2023-04-06T01:53:12;10.60;72.60
4356;DHT22;64374;51.482;7.408;2023-04-06T01:55:44;10.30;72.50
4356;DHT22;64374;51.482;7.408;2023-04-06T01:58:21;10.10;73.30
4356;DHT22;64374;51.482;7.408;2023-04-06T02:00:50;10.10;73.40
4356;DHT22;64374;51.482;7.408;2023-04-06T02:03:19;10.10;73.50
4356;DHT22;64374;51.482;7.408;2023-04-06T02:05:56;10.20;73.40
4356;DHT22;64374;51.482;7.408;2023-04-06T02:08:33;10.10;73.50
4356;DHT22;64374;51.482;7.408;2023-04-06T02:11:03;10.20;74.20
4356;DHT22;64374;51.482;7.408;2023-04-06T02:13:39;10.20;73.80
4356;DHT22;64374;51.482;7.408;2023-04-06T02:16:11;10.10;73.60
4356;DHT22;64374;51.482;7.408;2023-04-06T02:18:40;10.10;73.60
4356;DHT22;64374;51.482;7.408;2023-04-06T02:21:11;10.00;73.60
4356;DHT22;64374;51.482;7.408;2023-04-06T02:23:40;9.80;74.60
4356;DHT22;64374;51.482;7.408;2023-04-06T02:26:11;9.70;74.60
4356;DHT22;64374;51.482;7.408;2023-04-06T02:28:40;9.60;74.80
4356;DHT22;64374;51.482;7.408;2023-04-06T02:31:08;9.50;74.90
4356;DHT22;64374;51.482;7.408;2023-04-06T02:33:38;9.40;74.90
4356;DHT22;64374;51.482;7.408;2023-04-06T02:36:08;9.50;75.40
4356;DHT22;64374;51.482;7.408;2023-04-06T02:38:36;9.60;75.10
4356;DHT22;64374;51.482;7.408;2023-04-06T02:41:04;9.50;75.10
4356;DHT22;64374;51.482;7.408;2023-04-06T02:43:39;9.50;75.30
4356;DHT22;64374;51.482;7.408;2023-04-06T02:46:16;9.50;75.70
4356;DHT22;64374;51.482;7.408;2023-04-06T02:48:44;9.50;75.80
4356;DHT22;64374;51.482;7.408;2023-04-06T02:51:13;9.50;76.00
4356;DHT22;64374;51.482;7.408;2023-04-06T02:53:47;9.50;76.10
4356;DHT22;64374;51.482;7.408;2023-04-06T02:56:17;9.50;76.00
4356;DHT22;64374;51.482;7.408;2023-04-06T02:58:51;9.40;75.60
4356;DHT22;64374;51.482;7.408;2023-04-06T03:01:23;9.50;76.10
4356;DHT22;64374;51.482;7.408;2023-04-06T03:03:57;9.40;76.90
4356;DHT22;64374;51.482;7.408;2023-04-06T03:06:27;9.50;77.20
4356;DHT22;64374;51.482;7.408;2023-04-06T03:09:05;9.60;77.30
4356;DHT22;64374;51.482;7.408;2023-04-06T03:11:34;9.60;76.90
4356;DHT22;64374;51.482;7.408;2023-04-06T03:14:04;9.60;76.90
4356;DHT22;64374;51.482;7.408;2023-04-06T03:16:33;9.60;76.70
4356;DHT22;64374;51.482;7.408;2023-04-06T03:19:02;9.70;76.70
4356;DHT22;64374;51.482;7.408;2023-04-06T03:21:34;9.80;77.30
4356;DHT22;64374;51.482;7.408;2023-04-06T03:24:03;9.80;77.40
4356;DHT22;64374;51.482;7.408;2023-04-06T03:26:31;9.90;76.60
4356;DHT22;64374;51.482;7.408;2023-04-06T03:29:06;9.80;76.70
4356;DHT22;64374;51.482;7.408;2023-04-06T03:31:35;9.80;76.70
4356;DHT22;64374;51.482;7.408;2023-04-06T03:34:24;9.70;76.80
4356;DHT22;64374;51.482;7.408;2023-04-06T03:36:52;9.60;76.90
4356;DHT22;64374;51.482;7.408;2023-04-06T03:39:36;9.30;76.60
4356;DHT22;64374;51.482;7.408;2023-04-06T03:42:05;9.30;77.20
4356;DHT22;64374;51.482;7.408;2023-04-06T03:44:38;9.30;77.30
4356;DHT22;64374;51.482;7.408;2023-04-06T03:47:06;9.40;77.20
4356;DHT22;64374;51.482;7.408;2023-04-06T03:49:34;9.40;77.30
4356;DHT22;64374;51.482;7.408;2023-04-06T03:52:08;9.30;76.90
4356;DHT22;64374;51.482;7.408;2023-04-06T03:54:37;9.20;76.90
4356;DHT22;64374;51.482;7.408;2023-04-06T03:57:06;9.30;77.00
4356;DHT22;64374;51.482;7.408;2023-04-06T03:59:35;9.40;77.10
4356;DHT22;64374;51.482;7.408;2023-04-06T04:02:08;9.30;76.60
4356;DHT22;64374;51.482;7.408;2023-04-06T04:04:36;9.40;76.80
4356;DHT22;64374;51.482;7.408;2023-04-06T04:07:05;9.40;76.20
4356;DHT22;64374;51.482;7.408;2023-04-06T04:09:34;9.40;76.20
4356;DHT22;64374;51.482;7.408;2023-04-06T04:12:03;9.40;76.30
4356;DHT22;64374;51.482;7.408;2023-04-06T04:14:33;9.50;75.90
4356;DHT22;64374;51.482;7.408;2023-04-06T04:17:01;9.40;75.50
4356;DHT22;64374;51.482;7.408;2023-04-06T04:19:31;9.40;76.20
4356;DHT22;64374;51.482;7.408;2023-04-06T04:21:59;9.30;75.70
4356;DHT22;64374;51.482;7.408;2023-04-06T04:24:34;9.40;76.10
4356;DHT22;64374;51.482;7.408;2023-04-06T04:27:04;9.50;76.40
4356;DHT22;64374;51.482;7.408;2023-04-06T04:29:34;9.50;76.10
4356;DHT22;64374;51.482;7.408;2023-04-06T04:32:07;9.80;76.40
4356;DHT22;64374;51.482;7.408;2023-04-06T04:34:38;9.90;75.80
4356;DHT22;64374;51.482;7.408;2023-04-06T04:37:15;9.90;75.20
4356;DHT22;64374;51.482;7.408;2023-04-06T04:39:55;9.90;75.10
4356;DHT22;64374;51.482;7.408;2023-04-06T04:42:24;9.90;74.90
4356;DHT22;64374;51.482;7.408;2023-04-06T04:45:13;10.00;74.10
4356;DHT22;64374;51.482;7.408;2023-04-06T04:47:41;10.00;73.60
4356;DHT22;64374;51.482;7.408;2023-04-06T04:50:32;10.20;74.40
4356;DHT22;64374;51.482;7.408;2023-04-06T04:53:01;10.20;73.10
4356;DHT22;64374;51.482;7.408;2023-04-06T04:55:32;10.20;72.70
4356;DHT22;64374;51.482;7.408;2023-04-06T04:58:01;10.20;72.90
4356;DHT22;64374;51.482;7.408;2023-04-06T05:00:53;10.30;72.80
4356;DHT22;64374;51.482;7.408;2023-04-06T05:03:25;10.40;73.50
4356;DHT22;64374;51.482;7.408;2023-04-06T05:06:02;10.40;72.50
4356;DHT22;64374;51.482;7.408;2023-04-06T05:08:34;10.50;71.80
4356;DHT22;64374;51.482;7.408;2023-04-06T05:11:02;10.50;71.10
4356;DHT22;64374;51.482;7.408;2023-04-06T05:13:35;10.60;71.10
4356;DHT22;64374;51.482;7.408;2023-04-06T05:16:12;10.30;70.00
4356;DHT22;64374;51.482;7.408;2023-04-06T05:18:42;10.30;70.70
4356;DHT22;64374;51.482;7.408;2023-04-06T05:21:12;10.30;70.90
4356;DHT22;64374;51.482;7.408;2023-04-06T05:23:56;10.20;69.90
4356;DHT22;64374;51.482;7.408;2023-04-06T05:26:30;10.20;70.50
4356;DHT22;64374;51.482;7.408;2023-04-06T05:29:05;10.20;70.60
4356;DHT22;64374;51.482;7.408;2023-04-06T05:31:37;10.00;72.40
4356;DHT22;64374;51.482;7.408;2023-04-06T05:34:08;10.00;71.10
4356;DHT22;64374;51.482;7.408;2023-04-06T05:36:39;10.00;70.40
4356;DHT22;64374;51.482;7.408;2023-04-06T05:39:17;10.00;70.20
4356;DHT22;64374;51.482;7.408;2023-04-06T05:41:49;9.90;71.60
4356;DHT22;64374;51.482;7.408;2023-04-06T05:44:30;10.00;70.50
4356;DHT22;64374;51.482;7.408;2023-04-06T05:47:05;10.00;70.70
4356;DHT22;64374;51.482;7.408;2023-04-06T05:49:35;10.10;70.10
4356;DHT22;64374;51.482;7.408;2023-04-06T05:52:10;9.90;71.10
4356;DHT22;64374;51.482;7.408;2023-04-06T05:54:42;9.70;71.30
4356;DHT22;64374;51.482;7.408;2023-04-06T05:57:11;9.30;71.10
4356;DHT22;64374;51.482;7.408;2023-04-06T05:59:42;9.10;71.50
4356;DHT22;64374;51.482;7.408;2023-04-06T06:02:12;9.30;73.10
4356;DHT22;64374;51.482;7.408;2023-04-06T06:04:45;9.40;72.10
4356;DHT22;64374;51.482;7.408;2023-04-06T06:07:16;9.60;72.60
4356;DHT22;64374;51.482;7.408;2023-04-06T06:09:55;9.70;72.40
4356;DHT22;64374;51.482;7.408;2023-04-06T06:12:29;9.80;73.10
4356;DHT22;64374;51.482;7.408;2023-04-06T06:15:00;10.00;72.40
4356;DHT22;64374;51.482;7.408;2023-04-06T06:17:32;10.10;72.90
4356;DHT22;64374;51.482;7.408;2023-04-06T06:20:06;10.20;71.40
4356;DHT22;64374;51.482;7.408;2023-04-06T06:22:36;10.30;71.20
4356;DHT22;64374;51.482;7.408;2023-04-06T06:25:07;10.10;70.80
4356;DHT22;64374;51.482;7.408;2023-04-06T06:27:35;10.00;70.30
4356;DHT22;64374;51.482;7.408;2023-04-06T06:30:06;9.50;71.00
4356;DHT22;64374;51.482;7.408;2023-04-06T06:32:38;9.50;72.10
4356;DHT22;64374;51.482;7.408;2023-04-06T06:35:08;9.40;72.30
4356;DHT22;64374;51.482;7.408;2023-04-06T06:37:39;9.20;72.00
4356;DHT22;64374;51.482;7.408;2023-04-06T06:40:11;9.40;72.60
4356;DHT22;64374;51.482;7.408;2023-04-06T06:42:44;9.30;73.70
4356;DHT22;64374;51.482;7.408;2023-04-06T06:45:36;9.30;72.70
4356;DHT22;64374;51.482;7.408;2023-04-06T06:48:06;9.60;73.30
4356;DHT22;64374;51.482;7.408;2023-04-06T06:50:34;9.40;73.10
4356;DHT22;64374;51.482;7.408;2023-04-06T06:53:06;9.40;73.60
4356;DHT22;64374;51.482;7.408;2023-04-06T06:55:35;9.50;73.70
4356;DHT22;64374;51.482;7.408;2023-04-06T06:58:03;9.60;73.80
4356;DHT22;64374;51.482;7.408;2023-04-06T07:00:33;9.90;74.30
4356;DHT22;64374;51.482;7.408;2023-04-06T07:03:02;10.00;73.70
4356;DHT22;64374;51.482;7.408;2023-04-06T07:05:30;10.30;72.80
4356;DHT22;64374;51.482;7.408;2023-04-06T07:07:59;10.40;72.70
4356;DHT22;64374;51.482;7.408;2023-04-06T07:10:29;10.40;73.80
4356;DHT22;64374;51.482;7.408;2023-04-06T07:12:58;10.30;72.70
4356;DHT22;64374;51.482;7.408;2023-04-06T07:15:27;10.20;73.50
4356;DHT22;64374;51.482;7.408;2023-04-06T07:17:56;10.40;73.50
4356;DHT22;64374;51.482;7.408;2023-04-06T07:20:24;10.60;73.10
4356;DHT22;64374;51.482;7.408;2023-04-06T07:22:55;10.30;71.00
4356;DHT22;64374;51.482;7.408;2023-04-06T07:25:23;10.20;71.70
4356;DHT22;64374;51.482;7.408;2023-04-06T07:27:55;10.50;73.00
4356;DHT22;64374;51.482;7.408;2023-04-06T07:30:24;10.60;72.40
4356;DHT22;64374;51.482;7.408;2023-04-06T07:32:54;10.70;72.20
4356;DHT22;64374;51.482;7.408;2023-04-06T07:35:25;10.90;73.70
4356;DHT22;64374;51.482;7.408;2023-04-06T07:37:54;10.80;72.30
4356;DHT22;64374;51.482;7.408;2023-04-06T07:40:23;11.00;73.60
4356;DHT22;64374;51.482;7.408;2023-04-06T07:42:56;11.10;73.60
4356;DHT22;64374;51.482;7.408;2023-04-06T07:45:25;10.70;71.20
4356;DHT22;64374;51.482;7.408;2023-04-06T07:47:55;10.60;72.40
4356;DHT22;64374;51.482;7.408;2023-04-06T07:50:26;10.70;72.80
4356;DHT22;64374;51.482;7.408;2023-04-06T07:52:55;10.50;72.70
4356;DHT22;64374;51.482;7.408;2023-04-06T07:55:25;10.60;72.90
4356;DHT22;64374;51.482;7.408;2023-04-06T07:57:53;10.70;74.80
4356;DHT22;64374;51.482;7.408;2023-04-06T08:00:24;10.60;73.70
4356;DHT22;64374;51.482;7.408;2023-04-06T08:02:52;10.70;73.50
4356;DHT22;64374;51.482;7.408;2023-04-06T08:05:21;10.50;72.90
4356;DHT22;64374;51.482;7.408;2023-04-06T08:07:49;10.30;73.30
4356;DHT22;64374;51.482;7.408;2023-04-06T08:10:18;10.40;74.50
4356;DHT22;64374;51.482;7.408;2023-04-06T08:12:49;10.70;75.10
4356;DHT22;64374;51.482;7.408;2023-04-06T08:15:17;10.60;74.40
4356;DHT22;64374;51.482;7.408;2023-04-06T08:17:47;10.80;75.50
4356;DHT22;64374;51.482;7.408;2023-04-06T08:20:16;11.10;75.50
4356;DHT22;64374;51.482;7.408;2023-04-06T08:22:44;11.20;74.20
4356;DHT22;64374;51.482;7.408;2023-04-06T08:25:13;11.50;75.00
4356;DHT22;64374;51.482;7.408;2023-04-06T08:27:43;11.20;73.50
4356;DHT22;64374;51.482;7.408;2023-04-06T08:30:12;11.20;75.20
4356;DHT22;64374;51.482;7.408;2023-04-06T08:32:41;11.30;73.70
4356;DHT22;64374;51.482;7.408;2023-04-06T08:35:12;11.40;74.10
4356;DHT22;64374;51.482;7.408;2023-04-06T08:37:41;11.40;73.30
4356;DHT22;64374;51.482;7.408;2023-04-06T08:40:10;11.60;74.30
4356;DHT22;64374;51.482;7.408;2023-04-06T08:42:40;11.70;72.90
4356;DHT22;64374;51.482;7.408;2023-04-06T08:45:12;11.70;73.90
4356;DHT22;64374;51.482;7.408;2023-04-06T08:47:42;11.40;73.40
4356;DHT22;64374;51.482;7.408;2023-04-06T08:50:13;11.60;75.40
4356;DHT22;64374;51.482;7.408;2023-04-06T08:52:43;11.90;76.00
4356;DHT22;64374;51.482;7.408;2023-04-06T08:55:12;11.80;74.00
4356;DHT22;64374;51.482;7.408;2023-04-06T08:57:41;12.00;75.20
4356;DHT22;64374;51.482;7.408;2023-04-06T09:00:12;12.30;78.40
4356;DHT22;64374;51.482;7.408;2023-04-06T09:02:43;12.70;79.00
4356;DHT22;64374;51.482;7.408;2023-04-06T09:05:14;12.90;76.20
4356;DHT22;64374;51.482;7.408;2023-04-06T09:07:44;12.90;74.70
4356;DHT22;64374;51.482;7.408;2023-04-06T09:10:13;12.80;73.70
4356;DHT22;64374;51.482;7.408;2023-04-06T09:12:42;12.90;74.30
4356;DHT22;64374;51.482;7.408;2023-04-06T09:15:20;13.20;76.50
4356;DHT22;64374;51.482;7.408;2023-04-06T09:17:52;13.50;74.20
4356;DHT22;64374;51.482;7.408;2023-04-06T09:20:24;13.40;72.10
4356;DHT22;64374;51.482;7.408;2023-04-06T09:22:55;13.40;71.70
4356;DHT22;64374;51.482;7.408;2023-04-06T09:25:24;13.00;70.80
4356;DHT22;64374;51.482;7.408;2023-04-06T09:28:01;13.10;72.00
4356;DHT22;64374;51.482;7.408;2023-04-06T09:30:30;13.10;70.60
4356;DHT22;64374;51.482;7.408;2023-04-06T09:32:58;13.40;72.10
4356;DHT22;64374;51.482;7.408;2023-04-06T09:35:29;12.80;68.30
4356;DHT22;64374;51.482;7.408;2023-04-06T09:38:10;12.60;69.10
4356;DHT22;64374;51.482;7.408;2023-04-06T09:40:48;12.80;68.70
4356;DHT22;64374;51.482;7.408;2023-04-06T09:43:29;12.60;67.80
4356;DHT22;64374;51.482;7.408;2023-04-06T09:46:00;12.60;69.30
4356;DHT22;64374;51.482;7.408;2023-04-06T09:48:31;12.80;69.70
4356;DHT22;64374;51.482;7.408;2023-04-06T09:51:06;13.00;69.10
4356;DHT22;64374;51.482;7.408;2023-04-06T09:53:37;13.30;69.30
4356;DHT22;64374;51.482;7.408;2023-04-06T09:56:10;13.40;68.70
4356;DHT22;64374;51.482;7.408;2023-04-06T09:58:41;13.60;68.80
4356;DHT22;64374;51.482;7.408;2023-04-06T10:01:15;13.40;66.70
4356;DHT22;64374;51.482;7.408;2023-04-06T10:03:52;13.30;66.20
4356;DHT22;64374;51.482;7.408;2023-04-06T10:06:28;13.10;66.00
4356;DHT22;64374;51.482;7.408;2023-04-06T10:09:04;13.40;67.80
4356;DHT22;64374;51.482;7.408;2023-04-06T10:11:35;13.10;67.00
4356;DHT22;64374;51.482;7.408;2023-04-06T10:14:04;13.00;68.00
4356;DHT22;64374;51.482;7.408;2023-04-06T10:16:34;13.10;69.40
4356;DHT22;64374;51.482;7.408;2023-04-06T10:19:11;13.30;67.90
4356;DHT22;64374;51.482;7.408;2023-04-06T10:21:42;13.10;68.30
4356;DHT22;64374;51.482;7.408;2023-04-06T10:24:13;12.90;69.10
4356;DHT22;64374;51.482;7.408;2023-04-06T10:26:41;13.30;69.70
4356;DHT22;64374;51.482;7.408;2023-04-06T10:29:10;13.20;68.40
4356;DHT22;64374;51.482;7.408;2023-04-06T10:31:42;13.10;68.90
4356;DHT22;64374;51.482;7.408;2023-04-06T10:34:12;13.50;70.00
4356;DHT22;64374;51.482;7.408;2023-04-06T10:36:43;13.20;69.60
4356;DHT22;64374;51.482;7.408;2023-04-06T10:39:11;12.90;71.30
4356;DHT22;64374;51.482;7.408;2023-04-06T10:41:42;13.20;71.10
4356;DHT22;64374;51.482;7.408;2023-04-06T10:44:17;13.40;71.20
4356;DHT22;64374;51.482;7.408;2023-04-06T10:46:55;13.40;71.20
4356;DHT22;64374;51.482;7.408;2023-04-06T10:49:45;13.40;70.90
4356;DHT22;64374;51.482;7.408;2023-04-06T10:52:15;13.30;70.00
4356;DHT22;64374;51.482;7.408;2023-04-06T10:54:43;13.80;71.20
4356;DHT22;64374;51.482;7.408;2023-04-06T10:57:28;13.80;70.70
4356;DHT22;64374;51.482;7.408;2023-04-06T10:59:56;13.60;70.00
4356;DHT22;64374;51.482;7.408;2023-04-06T11:02:24;13.30;69.30
4356;DHT22;64374;51.482;7.408;2023-04-06T11:04:55;13.80;72.60
4356;DHT22;64374;51.482;7.408;2023-04-06T11:07:28;14.20;73.60
4356;DHT22;64374;51.482;7.408;2023-04-06T11:09:57;14.30;75.90
4356;DHT22;64374;51.482;7.408;2023-04-06T11:12:41;14.50;71.70
4356;DHT22;64374;51.482;7.408;2023-04-06T11:15:10;14.00;68.90
4356;DHT22;64374;51.482;7.408;2023-04-06T11:17:38;13.70;67.50
4356;DHT22;64374;51.482;7.408;2023-04-06T11:20:10;13.90;68.30
4356;DHT22;64374;51.482;7.408;2023-04-06T11:22:52;13.60;68.50
4356;DHT22;64374;51.482;7.408;2023-04-06T11:25:20;13.80;70.00
4356;DHT22;64374;51.482;7.408;2023-04-06T11:27:49;14.10;70.40
4356;DHT22;64374;51.482;7.408;2023-04-06T11:30:19;14.50;71.30
4356;DHT22;64374;51.482;7.408;2023-04-06T11:32:48;14.50;70.60
4356;DHT22;64374;51.482;7.408;2023-04-06T11:35:23;14.50;69.10
4356;DHT22;64374;51.482;7.408;2023-04-06T11:37:53;14.80;70.50
4356;DHT22;64374;51.482;7.408;2023-04-06T11:40:23;15.10;71.10
4356;DHT22;64374;51.482;7.408;2023-04-06T11:42:53;15.10;69.30
4356;DHT22;64374;51.482;7.408;2023-04-06T11:45:23;15.00;68.00
4356;DHT22;64374;51.482;7.408;2023-04-06T11:47:57;14.90;67.90
4356;DHT22;64374;51.482;7.408;2023-04-06T11:50:31;15.20;67.90
4356;DHT22;64374;51.482;7.408;2023-04-06T11:53:02;14.80;66.60
4356;DHT22;64374;51.482;7.408;2023-04-06T11:55:37;14.90;67.40
4356;DHT22;64374;51.482;7.408;2023-04-06T11:58:06;14.50;65.80
4356;DHT22;64374;51.482;7.408;2023-04-06T12:00:36;14.80;67.60
4356;DHT22;64374;51.482;7.408;2023-04-06T12:03:05;14.80;67.70
4356;DHT22;64374;51.482;7.408;2023-04-06T12:05:34;14.80;68.20
4356;DHT22;64374;51.482;7.408;2023-04-06T12:08:03;15.00;68.00
4356;DHT22;64374;51.482;7.408;2023-04-06T12:10:32;14.70;67.10
4356;DHT22;64374;51.482;7.408;2023-04-06T12:13:03;15.10;69.20
4356;DHT22;64374;51.482;7.408;2023-04-06T12:15:31;14.90;69.70
4356;DHT22;64374;51.482;7.408;2023-04-06T12:18:00;14.80;68.70
4356;DHT22;64374;51.482;7.408;2023-04-06T12:20:29;15.10;68.60
4356;DHT22;64374;51.482;7.408;2023-04-06T12:23:00;14.90;67.20
4356;DHT22;64374;51.482;7.408;2023-04-06T12:25:30;15.20;68.10
4356;DHT22;64374;51.482;7.408;2023-04-06T12:28:02;15.50;70.50
4356;DHT22;64374;51.482;7.408;2023-04-06T12:30:31;15.60;68.60
4356;DHT22;64374;51.482;7.408;2023-04-06T12:32:59;15.00;67.50
4356;DHT22;64374;51.482;7.408;2023-04-06T12:35:32;14.60;68.80
4356;DHT22;64374;51.482;7.408;2023-04-06T12:38:03;14.90;70.80
4356;DHT22;64374;51.482;7.408;2023-04-06T12:40:38;15.30;71.70
4356;DHT22;64374;51.482;7.408;2023-04-06T12:43:07;15.50;69.70
4356;DHT22;64374;51.482;7.408;2023-04-06T12:45:37;15.50;69.30
4356;DHT22;64374;51.482;7.408;2023-04-06T12:48:06;15.40;71.30
4356;DHT22;64374;51.482;7.408;2023-04-06T12:50:34;15.80;72.10
4356;DHT22;64374;51.482;7.408;2023-04-06T12:53:04;15.90;71.60
4356;DHT22;64374;51.482;7.408;2023-04-06T12:55:32;15.50;70.40
4356;DHT22;64374;51.482;7.408;2023-04-06T12:58:06;15.30;71.60
4356;DHT22;64374;51.482;7.408;2023-04-06T13:00:34;15.00;71.30
4356;DHT22;64374;51.482;7.408;2023-04-06T13:03:03;15.00;71.30
4356;DHT22;64374;51.482;7.408;2023-04-06T13:05:33;15.30;72.30
4356;DHT22;64374;51.482;7.408;2023-04-06T13:08:02;15.10;72.40
4356;DHT22;64374;51.482;7.408;2023-04-06T13:10:30;15.40;73.00
4356;DHT22;64374;51.482;7.408;2023-04-06T13:12:59;15.60;73.50
4356;DHT22;64374;51.482;7.408;2023-04-06T13:15:31;14.90;71.50
4356;DHT22;64374;51.482;7.408;2023-04-06T13:18:01;15.20;74.00
4356;DHT22;64374;51.482;7.408;2023-04-06T13:20:30;14.90;73.20
4356;DHT22;64374;51.482;7.408;2023-04-06T13:22:58;15.00;74.30
4356;DHT22;64374;51.482;7.408;2023-04-06T13:25:27;14.60;73.10
4356;DHT22;64374;51.482;7.408;2023-04-06T13:27:56;14.60;74.00
4356;DHT22;64374;51.482;7.408;2023-04-06T13:30:25;14.80;74.30
4356;DHT22;64374;51.482;7.408;2023-04-06T13:32:56;15.00;74.40
4356;DHT22;64374;51.482;7.408;2023-04-06T13:35:24;14.90;74.10
4356;DHT22;64374;51.482;7.408;2023-04-06T13:37:52;14.50;75.00
4356;DHT22;64374;51.482;7.408;2023-04-06T13:40:21;14.50;74.60
4356;DHT22;64374;51.482;7.408;2023-04-06T13:42:50;14.70;75.00
4356;DHT22;64374;51.482;7.408;2023-04-06T13:45:18;14.60;74.40
4356;DHT22;64374;51.482;7.408;2023-04-06T13:47:48;14.60;75.80
4356;DHT22;64374;51.482;7.408;2023-04-06T13:50:18;14.60;76.00
4356;DHT22;64374;51.482;7.408;2023-04-06T13:52:47;14.50;76.10
4356;DHT22;64374;51.482;7.408;2023-04-06T13:55:18;14.20;77.10
4356;DHT22;64374;51.482;7.408;2023-04-06T13:57:48;14.20;76.50
4356;DHT22;64374;51.482;7.408;2023-04-06T14:00:19;14.40;77.20
4356;DHT22;64374;51.482;7.408;2023-04-06T14:02:47;14.30;76.50
4356;DHT22;64374;51.482;7.408;2023-04-06T14:05:16;14.00;76.50
4356;DHT22;64374;51.482;7.408;2023-04-06T14:07:50;13.90;77.40
4356;DHT22;64374;51.482;7.408;2023-04-06T14:10:18;13.90;78.20
4356;DHT22;64374;51.482;7.408;2023-04-06T14:12:50;14.00;75.10
4356;DHT22;64374;51.482;7.408;2023-04-06T14:15:19;13.70;74.90
4356;DHT22;64374;51.482;7.408;2023-04-06T14:17:48;13.60;76.60
4356;DHT22;64374;51.482;7.408;2023-04-06T14:20:19;13.80;77.10
4356;DHT22;64374;51.482;7.408;2023-04-06T14:22:49;14.00;77.00
4356;DHT22;64374;51.482;7.408;2023-04-06T14:25:19;13.90;76.00
4356;DHT22;64374;51.482;7.408;2023-04-06T14:27:48;13.90;76.00
4356;DHT22;64374;51.482;7.408;2023-04-06T14:30:17;14.00;76.80
4356;DHT22;64374;51.482;7.408;2023-04-06T14:32:45;13.90;75.80
4356;DHT22;64374;51.482;7.408;2023-04-06T14:35:14;13.90;76.80
4356;DHT22;64374;51.482;7.408;2023-04-06T14:37:42;13.60;77.50
4356;DHT22;64374;51.482;7.408;2023-04-06T14:40:12;13.20;78.70
4356;DHT22;64374;51.482;7.408;2023-04-06T14:42:41;13.40;81.80
4356;DHT22;64374;51.482;7.408;2023-04-06T14:45:10;13.70;82.50
4356;DHT22;64374;51.482;7.408;2023-04-06T14:47:38;13.90;83.30
4356;DHT22;64374;51.482;7.408;2023-04-06T14:50:08;14.00;82.70
4356;DHT22;64374;51.482;7.408;2023-04-06T14:53:11;14.10;84.60
4356;DHT22;64374;51.482;7.408;2023-04-06T14:56:34;14.40;86.20
4356;DHT22;64374;51.482;7.408;2023-04-06T14:59:04;13.70;84.30
4356;DHT22;64374;51.482;7.408;2023-04-06T15:01:34;13.90;86.10
4356;DHT22;64374;51.482;7.408;2023-04-06T15:04:03;13.90;86.40
4356;DHT22;64374;51.482;7.408;2023-04-06T15:06:34;13.80;87.30
4356;DHT22;64374;51.482;7.408;2023-04-06T15:09:17;13.60;87.30
4356;DHT22;64374;51.482;7.408;2023-04-06T15:12:41;13.00;89.60
4356;DHT22;64374;51.482;7.408;2023-04-06T15:15:10;12.80;91.20
4356;DHT22;64374;51.482;7.408;2023-04-06T15:17:39;12.90;91.70
4356;DHT22;64374;51.482;7.408;2023-04-06T15:20:09;12.80;92.50
4356;DHT22;64374;51.482;7.408;2023-04-06T15:22:37;13.00;93.10
4356;DHT22;64374;51.482;7.408;2023-04-06T15:25:06;13.10;92.90
4356;DHT22;64374;51.482;7.408;2023-04-06T15:27:36;13.40;93.10
4356;DHT22;64374;51.482;7.408;2023-04-06T15:30:39;13.40;92.90
4356;DHT22;64374;51.482;7.408;2023-04-06T15:34:05;12.90;93.70
4356;DHT22;64374;51.482;7.408;2023-04-06T15:36:40;12.70;94.80
4356;DHT22;64374;51.482;7.408;2023-04-06T15:39:11;12.70;95.90
4356;DHT22;64374;51.482;7.408;2023-04-06T15:41:46;12.50;97.20
4356;DHT22;64374;51.482;7.408;2023-04-06T15:45:09;12.50;98.30
4356;DHT22;64374;51.482;7.408;2023-04-06T15:47:58;12.80;99.80
4356;DHT22;64374;51.482;7.408;2023-04-06T15:50:56;13.00;99.90
4356;DHT22;64374;51.482;7.408;2023-04-06T15:53:27;12.80;99.90
4356;DHT22;64374;51.482;7.408;2023-04-06T15:55:58;13.10;99.90
4356;DHT22;64374;51.482;7.408;2023-04-06T15:58:27;12.80;99.90
4356;DHT22;64374;51.482;7.408;2023-04-06T16:00:56;12.80;99.90
4356;DHT22;64374;51.482;7.408;2023-04-06T16:06:43;12.70;99.90
4356;DHT22;64374;51.482;7.408;2023-04-06T16:09:12;12.90;99.90
4356;DHT22;64374;51.482;7.408;2023-04-06T16:11:41;12.60;99.90
4356;DHT22;64374;51.482;7.408;2023-04-06T16:14:10;12.10;99.90
4356;DHT22;64374;51.482;7.408;2023-04-06T16:16:39;12.30;99.90
4356;DHT22;64374;51.482;7.408;2023-04-06T16:19:14;12.50;99.90
4356;DHT22;64374;51.482;7.408;2023-04-06T16:21:42;12.40;99.90
4356;DHT22;64374;51.482;7.408;2023-04-06T16:24:13;12.40;99.90